sensor_id;sensor_type;location;lat;lon;timestamp;temperature;humidity
69189;DHT22;56302;52.322;5.926;2022-12-04T00:02:21;-0.40;89.60
69189;DHT22;56302;52.322;5.926;2022-12-04T00:04:47;-0.50;89.70
69189;DHT22;56302;52.322;5.926;2022-12-04T00:07:13;-0.40;89.70
69189;DHT22;56302;52.322;5.926;2022-12-04T00:09:38;-0.40;89.70
69189;DHT22;56302;52.322;5.926;2022-12-04T00:12:04;-0.40;89.70
69189;DHT22;56302;52.322;5.926;2022-12-04T00:14:29;-0.40;89.70
69189;DHT22;56302;52.322;5.926;2022-12-04T00:16:55;-0.40;89.80
69189;DHT22;56302;52.322;5.926;2022-12-04T00:19:20;-0.40;89.80
69189;DHT22;56302;52.322;5.926;2022-12-04T00:21:48;-0.40;89.80
69189;DHT22;56302;52.322;5.926;2022-12-04T00:24:14;-0.40;89.90
69189;DHT22;56302;52.322;5.926;2022-12-04T00:26:39;-0.40;89.80
69189;DHT22;56302;52.322;5.926;2022-12-04T00:29:05;-0.40;89.60
69189;DHT22;56302;52.322;5.926;2022-12-04T00:31:30;-0.40;89.60
69189;DHT22;56302;52.322;5.926;2022-12-04T00:33:56;-0.40;89.80
69189;DHT22;56302;52.322;5.926;2022-12-04T00:36:23;-0.40;89.70
69189;DHT22;56302;52.322;5.926;2022-12-04T00:38:50;-0.40;89.50
69189;DHT22;56302;52.322;5.926;2022-12-04T00:41:18;-0.40;89.70
69189;DHT22;56302;52.322;5.926;2022-12-04T00:43:44;-0.40;89.70
69189;DHT22;56302;52.322;5.926;2022-12-04T00:46:10;-0.40;89.60
69189;DHT22;56302;52.322;5.926;2022-12-04T00:48:36;-0.40;89.80
69189;DHT22;56302;52.322;5.926;2022-12-04T00:51:07;-0.40;90.00
69189;DHT22;56302;52.322;5.926;2022-12-04T00:53:33;-0.40;89.80
69189;DHT22;56302;52.322;5.926;2022-12-04T00:56:03;-0.30;89.70
69189;DHT22;56302;52.322;5.926;2022-12-04T00:58:28;-0.40;89.70
69189;DHT22;56302;52.322;5.926;2022-12-04T01:01:01;-0.40;89.90
69189;DHT22;56302;52.322;5.926;2022-12-04T01:03:27;-0.40;89.80
69189;DHT22;56302;52.322;5.926;2022-12-04T01:05:53;-0.40;89.90
69189;DHT22;56302;52.322;5.926;2022-12-04T01:08:18;-0.40;89.90
69189;DHT22;56302;52.322;5.926;2022-12-04T01:10:44;-0.40;89.70
69189;DHT22;56302;52.322;5.926;2022-12-04T01:13:09;-0.30;89.80
69189;DHT22;56302;52.322;5.926;2022-12-04T01:15:39;-0.40;89.80
69189;DHT22;56302;52.322;5.926;2022-12-04T01:18:06;-0.40;89.90
69189;DHT22;56302;52.322;5.926;2022-12-04T01:20:31;-0.40;90.00
69189;DHT22;56302;52.322;5.926;2022-12-04T01:22:57;-0.30;90.10
69189;DHT22;56302;52.322;5.926;2022-12-04T01:25:23;-0.30;90.00
69189;DHT22;56302;52.322;5.926;2022-12-04T01:27:48;-0.40;89.90
69189;DHT22;56302;52.322;5.926;2022-12-04T01:30:14;-0.40;89.90
69189;DHT22;56302;52.322;5.926;2022-12-04T01:32:39;-0.40;90.10
69189;DHT22;56302;52.322;5.926;2022-12-04T01:35:05;-0.30;89.90
69189;DHT22;56302;52.322;5.926;2022-12-04T01:37:31;-0.40;90.00
69189;DHT22;56302;52.322;5.926;2022-12-04T01:39:57;-0.30;90.00
69189;DHT22;56302;52.322;5.926;2022-12-04T01:42:23;-0.30;90.00
69189;DHT22;56302;52.322;5.926;2022-12-04T01:45:33;-0.30;90.00
69189;DHT22;56302;52.322;5.926;2022-12-04T01:48:17;-0.30;90.00
69189;DHT22;56302;52.322;5.926;2022-12-04T01:50:44;-0.30;90.00
69189;DHT22;56302;52.322;5.926;2022-12-04T01:53:11;-0.40;90.20
69189;DHT22;56302;52.322;5.926;2022-12-04T01:55:37;-0.30;90.40
69189;DHT22;56302;52.322;5.926;2022-12-04T01:58:03;-0.30;90.50
69189;DHT22;56302;52.322;5.926;2022-12-04T02:00:28;-0.30;90.40
69189;DHT22;56302;52.322;5.926;2022-12-04T02:02:55;-0.30;90.30
69189;DHT22;56302;52.322;5.926;2022-12-04T02:05:21;-0.30;90.50
69189;DHT22;56302;52.322;5.926;2022-12-04T02:07:49;-0.30;90.60
69189;DHT22;56302;52.322;5.926;2022-12-04T02:10:16;-0.30;90.60
69189;DHT22;56302;52.322;5.926;2022-12-04T02:13:16;-0.30;90.50
69189;DHT22;56302;52.322;5.926;2022-12-04T02:15:51;-0.40;90.60
69189;DHT22;56302;52.322;5.926;2022-12-04T02:21:01;-0.30;90.80
69189;DHT22;56302;52.322;5.926;2022-12-04T02:29:01;-0.30;90.80
69189;DHT22;56302;52.322;5.926;2022-12-04T02:31:33;-0.30;90.90
69189;DHT22;56302;52.322;5.926;2022-12-04T02:34:13;-0.30;90.80
69189;DHT22;56302;52.322;5.926;2022-12-04T02:36:46;-0.40;91.10
69189;DHT22;56302;52.322;5.926;2022-12-04T02:39:21;-0.30;90.90
69189;DHT22;56302;52.322;5.926;2022-12-04T02:42:09;-0.40;90.80
69189;DHT22;56302;52.322;5.926;2022-12-04T02:44:40;-0.40;91.20
69189;DHT22;56302;52.322;5.926;2022-12-04T02:47:11;-0.30;91.20
69189;DHT22;56302;52.322;5.926;2022-12-04T02:49:45;-0.30;91.20
69189;DHT22;56302;52.322;5.926;2022-12-04T02:52:15;-0.40;91.20
69189;DHT22;56302;52.322;5.926;2022-12-04T02:54:46;-0.40;91.20
69189;DHT22;56302;52.322;5.926;2022-12-04T02:57:18;-0.40;91.50
69189;DHT22;56302;52.322;5.926;2022-12-04T02:59:46;-0.40;91.40
69189;DHT22;56302;52.322;5.926;2022-12-04T03:02:39;-0.40;91.50
69189;DHT22;56302;52.322;5.926;2022-12-04T03:05:10;-0.40;91.60
69189;DHT22;56302;52.322;5.926;2022-12-04T03:08:15;-0.40;91.60
69189;DHT22;56302;52.322;5.926;2022-12-04T03:10:37;-0.40;91.70
69189;DHT22;56302;52.322;5.926;2022-12-04T03:13:13;-0.40;91.70
69189;DHT22;56302;52.322;5.926;2022-12-04T03:15:49;-0.40;91.80
69189;DHT22;56302;52.322;5.926;2022-12-04T03:18:30;-0.40;91.70
69189;DHT22;56302;52.322;5.926;2022-12-04T03:21:02;-0.40;91.80
69189;DHT22;56302;52.322;5.926;2022-12-04T03:23:38;-0.40;91.80
69189;DHT22;56302;52.322;5.926;2022-12-04T03:31:43;-0.40;91.80
69189;DHT22;56302;52.322;5.926;2022-12-04T03:34:11;-0.40;92.00
69189;DHT22;56302;52.322;5.926;2022-12-04T03:36:48;-0.40;92.00
69189;DHT22;56302;52.322;5.926;2022-12-04T03:39:29;-0.40;92.10
69189;DHT22;56302;52.322;5.926;2022-12-04T03:42:02;-0.40;92.00
69189;DHT22;56302;52.322;5.926;2022-12-04T03:44:31;-0.40;92.00
69189;DHT22;56302;52.322;5.926;2022-12-04T03:47:20;-0.40;92.00
69189;DHT22;56302;52.322;5.926;2022-12-04T03:49:58;-0.40;92.10
69189;DHT22;56302;52.322;5.926;2022-12-04T03:52:37;-0.30;92.10
69189;DHT22;56302;52.322;5.926;2022-12-04T03:55:20;-0.40;92.00
69189;DHT22;56302;52.322;5.926;2022-12-04T03:57:49;-0.40;91.90
69189;DHT22;56302;52.322;5.926;2022-12-04T04:00:18;-0.40;92.20
69189;DHT22;56302;52.322;5.926;2022-12-04T04:03:08;-0.40;92.20
69189;DHT22;56302;52.322;5.926;2022-12-04T04:05:35;-0.30;92.10
69189;DHT22;56302;52.322;5.926;2022-12-04T04:08:04;-0.40;92.10
69189;DHT22;56302;52.322;5.926;2022-12-04T04:10:52;-0.40;92.20
69189;DHT22;56302;52.322;5.926;2022-12-04T04:13:29;-0.30;92.20
69189;DHT22;56302;52.322;5.926;2022-12-04T04:16:19;-0.40;92.00
69189;DHT22;56302;52.322;5.926;2022-12-04T04:19:04;-0.40;92.00
69189;DHT22;56302;52.322;5.926;2022-12-04T04:21:49;-0.40;92.10
69189;DHT22;56302;52.322;5.926;2022-12-04T04:24:44;-0.40;92.00
69189;DHT22;56302;52.322;5.926;2022-12-04T04:27:11;-0.40;92.10
69189;DHT22;56302;52.322;5.926;2022-12-04T04:29:37;-0.40;92.00
69189;DHT22;56302;52.322;5.926;2022-12-04T04:40:37;-0.40;92.10
69189;DHT22;56302;52.322;5.926;2022-12-04T04:43:17;-0.40;92.20
69189;DHT22;56302;52.322;5.926;2022-12-04T04:45:56;-0.40;92.00
69189;DHT22;56302;52.322;5.926;2022-12-04T04:48:28;-0.40;92.10
69189;DHT22;56302;52.322;5.926;2022-12-04T04:50:54;-0.40;92.20
69189;DHT22;56302;52.322;5.926;2022-12-04T04:53:24;-0.40;92.30
69189;DHT22;56302;52.322;5.926;2022-12-04T04:55:53;-0.40;92.30
69189;DHT22;56302;52.322;5.926;2022-12-04T04:58:20;-0.40;92.20
69189;DHT22;56302;52.322;5.926;2022-12-04T05:00:59;-0.40;92.20
69189;DHT22;56302;52.322;5.926;2022-12-04T05:03:26;-0.30;92.30
69189;DHT22;56302;52.322;5.926;2022-12-04T05:05:52;-0.30;92.30
69189;DHT22;56302;52.322;5.926;2022-12-04T05:08:17;-0.40;92.20
69189;DHT22;56302;52.322;5.926;2022-12-04T05:10:43;-0.30;92.20
69189;DHT22;56302;52.322;5.926;2022-12-04T05:13:11;-0.30;92.20
69189;DHT22;56302;52.322;5.926;2022-12-04T05:15:37;-0.30;92.30
69189;DHT22;56302;52.322;5.926;2022-12-04T05:18:03;-0.30;92.40
69189;DHT22;56302;52.322;5.926;2022-12-04T05:20:29;-0.30;92.40
69189;DHT22;56302;52.322;5.926;2022-12-04T05:22:55;-0.30;92.40
69189;DHT22;56302;52.322;5.926;2022-12-04T05:25:21;-0.30;92.40
69189;DHT22;56302;52.322;5.926;2022-12-04T05:27:46;-0.30;92.50
69189;DHT22;56302;52.322;5.926;2022-12-04T05:30:12;-0.30;92.30
69189;DHT22;56302;52.322;5.926;2022-12-04T05:32:37;-0.30;92.50
69189;DHT22;56302;52.322;5.926;2022-12-04T05:35:03;-0.30;92.50
69189;DHT22;56302;52.322;5.926;2022-12-04T05:37:29;-0.30;92.60
69189;DHT22;56302;52.322;5.926;2022-12-04T05:39:54;-0.30;92.50
69189;DHT22;56302;52.322;5.926;2022-12-04T05:42:20;-0.30;92.60
69189;DHT22;56302;52.322;5.926;2022-12-04T05:44:47;-0.30;92.70
69189;DHT22;56302;52.322;5.926;2022-12-04T05:47:13;-0.30;92.70
69189;DHT22;56302;52.322;5.926;2022-12-04T05:49:38;-0.30;92.70
69189;DHT22;56302;52.322;5.926;2022-12-04T05:52:04;-0.30;92.70
69189;DHT22;56302;52.322;5.926;2022-12-04T05:54:31;-0.30;92.70
69189;DHT22;56302;52.322;5.926;2022-12-04T05:56:56;-0.30;92.70
69189;DHT22;56302;52.322;5.926;2022-12-04T05:59:22;-0.30;92.90
69189;DHT22;56302;52.322;5.926;2022-12-04T06:01:47;-0.30;92.90
69189;DHT22;56302;52.322;5.926;2022-12-04T06:04:13;-0.30;92.90
69189;DHT22;56302;52.322;5.926;2022-12-04T06:06:39;-0.30;92.90
69189;DHT22;56302;52.322;5.926;2022-12-04T06:09:06;-0.30;93.00
69189;DHT22;56302;52.322;5.926;2022-12-04T06:11:35;-0.30;93.00
69189;DHT22;56302;52.322;5.926;2022-12-04T06:14:02;-0.30;93.20
69189;DHT22;56302;52.322;5.926;2022-12-04T06:16:32;-0.30;93.20
69189;DHT22;56302;52.322;5.926;2022-12-04T06:19:00;-0.30;93.30
69189;DHT22;56302;52.322;5.926;2022-12-04T06:21:30;-0.20;93.30
69189;DHT22;56302;52.322;5.926;2022-12-04T06:23:57;-0.20;93.10
69189;DHT22;56302;52.322;5.926;2022-12-04T06:26:23;-0.20;93.10
69189;DHT22;56302;52.322;5.926;2022-12-04T06:28:52;-0.20;93.00
69189;DHT22;56302;52.322;5.926;2022-12-04T06:31:17;-0.20;93.10
69189;DHT22;56302;52.322;5.926;2022-12-04T06:33:43;-0.30;93.10
69189;DHT22;56302;52.322;5.926;2022-12-04T06:36:19;-0.30;93.30
69189;DHT22;56302;52.322;5.926;2022-12-04T06:38:49;-0.20;93.40
69189;DHT22;56302;52.322;5.926;2022-12-04T06:41:17;-0.20;93.50
69189;DHT22;56302;52.322;5.926;2022-12-04T06:43:43;-0.20;93.50
69189;DHT22;56302;52.322;5.926;2022-12-04T06:46:12;-0.30;93.30
69189;DHT22;56302;52.322;5.926;2022-12-04T06:48:38;-0.30;93.30
69189;DHT22;56302;52.322;5.926;2022-12-04T06:51:07;-0.20;93.20
69189;DHT22;56302;52.322;5.926;2022-12-04T06:53:33;-0.20;93.20
69189;DHT22;56302;52.322;5.926;2022-12-04T06:56:01;-0.20;93.30
69189;DHT22;56302;52.322;5.926;2022-12-04T06:58:27;-0.20;93.20
69189;DHT22;56302;52.322;5.926;2022-12-04T07:00:53;-0.20;93.30
69189;DHT22;56302;52.322;5.926;2022-12-04T07:03:19;-0.20;93.40
69189;DHT22;56302;52.322;5.926;2022-12-04T07:05:45;-0.30;93.40
69189;DHT22;56302;52.322;5.926;2022-12-04T07:08:10;-0.30;93.40
69189;DHT22;56302;52.322;5.926;2022-12-04T07:10:37;-0.20;93.40
69189;DHT22;56302;52.322;5.926;2022-12-04T07:13:03;-0.20;93.50
69189;DHT22;56302;52.322;5.926;2022-12-04T07:15:30;-0.20;93.50
69189;DHT22;56302;52.322;5.926;2022-12-04T07:17:56;-0.20;93.50
69189;DHT22;56302;52.322;5.926;2022-12-04T07:20:22;-0.30;93.50
69189;DHT22;56302;52.322;5.926;2022-12-04T07:22:48;-0.30;93.50
69189;DHT22;56302;52.322;5.926;2022-12-04T07:25:14;-0.30;93.60
69189;DHT22;56302;52.322;5.926;2022-12-04T07:27:39;-0.20;93.80
69189;DHT22;56302;52.322;5.926;2022-12-04T07:30:05;-0.20;93.70
69189;DHT22;56302;52.322;5.926;2022-12-04T07:32:31;-0.20;93.70
69189;DHT22;56302;52.322;5.926;2022-12-04T07:34:56;-0.20;93.70
69189;DHT22;56302;52.322;5.926;2022-12-04T07:37:22;-0.20;93.70
69189;DHT22;56302;52.322;5.926;2022-12-04T07:39:50;-0.20;93.70
69189;DHT22;56302;52.322;5.926;2022-12-04T07:42:17;-0.20;93.70
69189;DHT22;56302;52.322;5.926;2022-12-04T07:44:42;-0.20;93.80
69189;DHT22;56302;52.322;5.926;2022-12-04T07:47:08;-0.20;93.90
69189;DHT22;56302;52.322;5.926;2022-12-04T07:49:33;-0.20;94.00
69189;DHT22;56302;52.322;5.926;2022-12-04T07:51:59;-0.20;93.80
69189;DHT22;56302;52.322;5.926;2022-12-04T07:54:24;-0.20;93.90
69189;DHT22;56302;52.322;5.926;2022-12-04T07:56:50;-0.20;93.90
69189;DHT22;56302;52.322;5.926;2022-12-04T07:59:15;-0.20;94.00
69189;DHT22;56302;52.322;5.926;2022-12-04T08:01:41;-0.20;94.10
69189;DHT22;56302;52.322;5.926;2022-12-04T08:04:08;-0.20;94.20
69189;DHT22;56302;52.322;5.926;2022-12-04T08:06:34;-0.20;94.30
69189;DHT22;56302;52.322;5.926;2022-12-04T08:08:59;-0.20;94.30
69189;DHT22;56302;52.322;5.926;2022-12-04T08:11:26;-0.20;94.30
69189;DHT22;56302;52.322;5.926;2022-12-04T08:13:54;-0.20;94.50
69189;DHT22;56302;52.322;5.926;2022-12-04T08:16:20;-0.20;94.40
69189;DHT22;56302;52.322;5.926;2022-12-04T08:18:45;-0.20;94.50
69189;DHT22;56302;52.322;5.926;2022-12-04T08:21:18;-0.20;94.70
69189;DHT22;56302;52.322;5.926;2022-12-04T08:23:48;-0.20;94.80
69189;DHT22;56302;52.322;5.926;2022-12-04T08:26:15;-0.20;94.60
69189;DHT22;56302;52.322;5.926;2022-12-04T08:28:41;-0.20;94.70
69189;DHT22;56302;52.322;5.926;2022-12-04T08:31:14;-0.10;94.70
69189;DHT22;56302;52.322;5.926;2022-12-04T08:33:41;-0.20;94.70
69189;DHT22;56302;52.322;5.926;2022-12-04T08:36:12;-0.20;94.60
69189;DHT22;56302;52.322;5.926;2022-12-04T08:38:38;-0.20;94.70
69189;DHT22;56302;52.322;5.926;2022-12-04T08:41:07;-0.10;94.70
69189;DHT22;56302;52.322;5.926;2022-12-04T08:43:33;-0.20;94.70
69189;DHT22;56302;52.322;5.926;2022-12-04T08:46:04;-0.10;94.60
69189;DHT22;56302;52.322;5.926;2022-12-04T08:48:30;-0.10;94.50
69189;DHT22;56302;52.322;5.926;2022-12-04T08:50:57;-0.10;94.60
69189;DHT22;56302;52.322;5.926;2022-12-04T08:53:23;-0.10;94.70
69189;DHT22;56302;52.322;5.926;2022-12-04T08:55:49;-0.10;94.60
69189;DHT22;56302;52.322;5.926;2022-12-04T08:58:15;-0.10;94.60
69189;DHT22;56302;52.322;5.926;2022-12-04T09:00:41;-0.10;94.60
69189;DHT22;56302;52.322;5.926;2022-12-04T09:03:10;-0.10;94.50
69189;DHT22;56302;52.322;5.926;2022-12-04T09:05:37;-0.10;94.50
69189;DHT22;56302;52.322;5.926;2022-12-04T09:08:02;-0.10;94.50
69189;DHT22;56302;52.322;5.926;2022-12-04T09:10:28;0.00;94.50
69189;DHT22;56302;52.322;5.926;2022-12-04T09:12:54;0.00;94.30
69189;DHT22;56302;52.322;5.926;2022-12-04T09:15:19;0.00;94.30
69189;DHT22;56302;52.322;5.926;2022-12-04T09:17:45;0.00;94.30
69189;DHT22;56302;52.322;5.926;2022-12-04T09:20:10;-0.10;94.20
69189;DHT22;56302;52.322;5.926;2022-12-04T09:22:36;0.00;94.40
69189;DHT22;56302;52.322;5.926;2022-12-04T09:25:03;0.00;94.30
69189;DHT22;56302;52.322;5.926;2022-12-04T09:27:34;0.00;94.30
69189;DHT22;56302;52.322;5.926;2022-12-04T09:29:59;0.00;94.10
69189;DHT22;56302;52.322;5.926;2022-12-04T09:32:25;0.00;94.10
69189;DHT22;56302;52.322;5.926;2022-12-04T09:34:50;0.00;94.00
69189;DHT22;56302;52.322;5.926;2022-12-04T09:37:16;0.00;94.00
69189;DHT22;56302;52.322;5.926;2022-12-04T09:39:42;0.00;93.80
69189;DHT22;56302;52.322;5.926;2022-12-04T09:42:46;0.00;93.40
69189;DHT22;56302;52.322;5.926;2022-12-04T09:45:20;0.00;92.80
69189;DHT22;56302;52.322;5.926;2022-12-04T09:47:49;0.00;92.60
69189;DHT22;56302;52.322;5.926;2022-12-04T09:52:48;0.00;92.40
69189;DHT22;56302;52.322;5.926;2022-12-04T09:55:39;0.00;92.20
69189;DHT22;56302;52.322;5.926;2022-12-04T09:58:04;0.10;92.40
69189;DHT22;56302;52.322;5.926;2022-12-04T10:00:36;0.10;92.40
69189;DHT22;56302;52.322;5.926;2022-12-04T10:03:05;0.10;92.40
69189;DHT22;56302;52.322;5.926;2022-12-04T10:08:34;0.10;92.20
69189;DHT22;56302;52.322;5.926;2022-12-04T10:11:17;0.10;92.10
69189;DHT22;56302;52.322;5.926;2022-12-04T10:14:04;0.10;92.10
69189;DHT22;56302;52.322;5.926;2022-12-04T10:16:42;0.10;91.90
69189;DHT22;56302;52.322;5.926;2022-12-04T10:19:31;0.20;92.00
69189;DHT22;56302;52.322;5.926;2022-12-04T10:22:37;0.20;91.90
69189;DHT22;56302;52.322;5.926;2022-12-04T10:25:20;0.20;91.90
69189;DHT22;56302;52.322;5.926;2022-12-04T10:27:56;0.20;91.90
69189;DHT22;56302;52.322;5.926;2022-12-04T10:30:28;0.20;92.10
69189;DHT22;56302;52.322;5.926;2022-12-04T10:35:47;0.20;92.20
69189;DHT22;56302;52.322;5.926;2022-12-04T10:41:16;0.20;91.80
69189;DHT22;56302;52.322;5.926;2022-12-04T10:43:47;0.20;91.50
69189;DHT22;56302;52.322;5.926;2022-12-04T10:46:19;0.20;91.30
69189;DHT22;56302;52.322;5.926;2022-12-04T10:48:48;0.20;91.30
69189;DHT22;56302;52.322;5.926;2022-12-04T10:51:17;0.30;91.30
69189;DHT22;56302;52.322;5.926;2022-12-04T10:53:44;0.30;91.10
69189;DHT22;56302;52.322;5.926;2022-12-04T10:56:18;0.30;91.40
69189;DHT22;56302;52.322;5.926;2022-12-04T10:59:13;0.30;91.10
69189;DHT22;56302;52.322;5.926;2022-12-04T11:01:39;0.30;91.40
69189;DHT22;56302;52.322;5.926;2022-12-04T11:04:09;0.30;91.30
69189;DHT22;56302;52.322;5.926;2022-12-04T11:06:43;0.30;91.40
69189;DHT22;56302;52.322;5.926;2022-12-04T11:09:19;0.30;91.40
69189;DHT22;56302;52.322;5.926;2022-12-04T11:11:48;0.40;91.50
69189;DHT22;56302;52.322;5.926;2022-12-04T11:14:16;0.40;91.20
69189;DHT22;56302;52.322;5.926;2022-12-04T11:16:44;0.40;91.30
69189;DHT22;56302;52.322;5.926;2022-12-04T11:19:21;0.40;90.90
69189;DHT22;56302;52.322;5.926;2022-12-04T11:21:46;0.40;90.90
69189;DHT22;56302;52.322;5.926;2022-12-04T11:26:53;0.40;91.20
69189;DHT22;56302;52.322;5.926;2022-12-04T11:29:28;0.40;91.10
69189;DHT22;56302;52.322;5.926;2022-12-04T11:31:54;0.50;91.00
69189;DHT22;56302;52.322;5.926;2022-12-04T11:34:24;0.40;91.00
69189;DHT22;56302;52.322;5.926;2022-12-04T11:36:55;0.40;91.10
69189;DHT22;56302;52.322;5.926;2022-12-04T11:39:33;0.50;91.20
69189;DHT22;56302;52.322;5.926;2022-12-04T11:42:14;0.50;91.30
69189;DHT22;56302;52.322;5.926;2022-12-04T11:44:56;0.50;91.20
69189;DHT22;56302;52.322;5.926;2022-12-04T11:47:25;0.50;90.80
69189;DHT22;56302;52.322;5.926;2022-12-04T11:50:17;0.50;90.90
69189;DHT22;56302;52.322;5.926;2022-12-04T11:53:01;0.60;91.10
69189;DHT22;56302;52.322;5.926;2022-12-04T11:58:19;0.60;91.00
69189;DHT22;56302;52.322;5.926;2022-12-04T12:01:56;0.60;91.00
69189;DHT22;56302;52.322;5.926;2022-12-04T12:04:27;0.60;91.10
69189;DHT22;56302;52.322;5.926;2022-12-04T12:18:11;0.70;90.70
69189;DHT22;56302;52.322;5.926;2022-12-04T12:20:53;0.70;90.60
69189;DHT22;56302;52.322;5.926;2022-12-04T12:26:16;0.70;90.80
69189;DHT22;56302;52.322;5.926;2022-12-04T12:28:54;0.70;90.90
69189;DHT22;56302;52.322;5.926;2022-12-04T12:34:04;0.70;91.00
69189;DHT22;56302;52.322;5.926;2022-12-04T12:36:38;0.70;91.10
69189;DHT22;56302;52.322;5.926;2022-12-04T12:39:26;0.70;91.30
69189;DHT22;56302;52.322;5.926;2022-12-04T12:41:58;0.80;91.60
69189;DHT22;56302;52.322;5.926;2022-12-04T12:44:58;0.70;91.40
69189;DHT22;56302;52.322;5.926;2022-12-04T12:47:30;0.80;91.50
69189;DHT22;56302;52.322;5.926;2022-12-04T12:50:04;0.80;91.50
69189;DHT22;56302;52.322;5.926;2022-12-04T12:52:55;0.80;91.50
69189;DHT22;56302;52.322;5.926;2022-12-04T12:55:27;0.80;91.70
69189;DHT22;56302;52.322;5.926;2022-12-04T12:58:04;0.80;91.50
69189;DHT22;56302;52.322;5.926;2022-12-04T13:00:38;0.80;91.50
69189;DHT22;56302;52.322;5.926;2022-12-04T13:03:27;0.80;91.30
69189;DHT22;56302;52.322;5.926;2022-12-04T13:06:00;0.90;91.20
69189;DHT22;56302;52.322;5.926;2022-12-04T13:08:41;0.90;91.50
69189;DHT22;56302;52.322;5.926;2022-12-04T13:11:17;0.90;91.60
69189;DHT22;56302;52.322;5.926;2022-12-04T13:13:56;0.90;91.80
69189;DHT22;56302;52.322;5.926;2022-12-04T13:16:25;0.90;91.80
69189;DHT22;56302;52.322;5.926;2022-12-04T13:19:15;0.90;91.40
69189;DHT22;56302;52.322;5.926;2022-12-04T13:38:35;0.90;91.60
69189;DHT22;56302;52.322;5.926;2022-12-04T13:41:07;0.90;91.70
69189;DHT22;56302;52.322;5.926;2022-12-04T13:46:20;0.90;91.70
69189;DHT22;56302;52.322;5.926;2022-12-04T13:48:47;0.90;91.80
69189;DHT22;56302;52.322;5.926;2022-12-04T13:53:40;1.00;91.90
69189;DHT22;56302;52.322;5.926;2022-12-04T13:56:07;1.00;91.90
69189;DHT22;56302;52.322;5.926;2022-12-04T13:58:58;1.00;91.80
69189;DHT22;56302;52.322;5.926;2022-12-04T14:01:40;1.00;91.80
69189;DHT22;56302;52.322;5.926;2022-12-04T14:04:25;1.00;91.80
69189;DHT22;56302;52.322;5.926;2022-12-04T14:06:52;1.00;91.90
69189;DHT22;56302;52.322;5.926;2022-12-04T14:09:27;1.00;91.60
69189;DHT22;56302;52.322;5.926;2022-12-04T14:12:01;1.00;91.20
69189;DHT22;56302;52.322;5.926;2022-12-04T14:14:33;1.00;91.20
69189;DHT22;56302;52.322;5.926;2022-12-04T14:17:00;1.10;91.40
69189;DHT22;56302;52.322;5.926;2022-12-04T14:21:54;1.10;91.30
69189;DHT22;56302;52.322;5.926;2022-12-04T14:24:33;1.10;91.00
69189;DHT22;56302;52.322;5.926;2022-12-04T14:27:28;1.10;91.30
69189;DHT22;56302;52.322;5.926;2022-12-04T14:29:56;1.10;91.20
69189;DHT22;56302;52.322;5.926;2022-12-04T14:32:25;1.10;91.40
69189;DHT22;56302;52.322;5.926;2022-12-04T14:34:52;1.10;91.30
69189;DHT22;56302;52.322;5.926;2022-12-04T14:37:26;1.10;91.30
69189;DHT22;56302;52.322;5.926;2022-12-04T14:39:54;1.10;91.40
69189;DHT22;56302;52.322;5.926;2022-12-04T14:42:38;1.10;91.50
69189;DHT22;56302;52.322;5.926;2022-12-04T14:45:18;1.10;91.60
69189;DHT22;56302;52.322;5.926;2022-12-04T14:48:06;1.10;91.70
69189;DHT22;56302;52.322;5.926;2022-12-04T14:50:56;1.10;91.70
69189;DHT22;56302;52.322;5.926;2022-12-04T14:53:37;1.10;91.80
69189;DHT22;56302;52.322;5.926;2022-12-04T14:58:56;1.10;91.90
69189;DHT22;56302;52.322;5.926;2022-12-04T15:01:25;1.20;91.80
69189;DHT22;56302;52.322;5.926;2022-12-04T15:03:54;1.20;91.80
69189;DHT22;56302;52.322;5.926;2022-12-04T15:06:28;1.20;91.70
69189;DHT22;56302;52.322;5.926;2022-12-04T15:08:57;1.20;91.60
69189;DHT22;56302;52.322;5.926;2022-12-04T15:11:54;1.20;91.60
69189;DHT22;56302;52.322;5.926;2022-12-04T15:14:48;1.20;91.40
69189;DHT22;56302;52.322;5.926;2022-12-04T15:17:16;1.30;91.20
69189;DHT22;56302;52.322;5.926;2022-12-04T15:19:42;1.30;91.20
69189;DHT22;56302;52.322;5.926;2022-12-04T15:24:45;1.30;91.20
69189;DHT22;56302;52.322;5.926;2022-12-04T15:27:12;1.40;91.20
69189;DHT22;56302;52.322;5.926;2022-12-04T15:29:38;1.30;91.20
69189;DHT22;56302;52.322;5.926;2022-12-04T15:32:13;1.40;91.10
69189;DHT22;56302;52.322;5.926;2022-12-04T15:34:45;1.40;91.10
69189;DHT22;56302;52.322;5.926;2022-12-04T15:37:26;1.40;91.10
69189;DHT22;56302;52.322;5.926;2022-12-04T15:39:52;1.40;90.90
69189;DHT22;56302;52.322;5.926;2022-12-04T15:42:25;1.40;91.10
69189;DHT22;56302;52.322;5.926;2022-12-04T15:44:59;1.40;91.30
69189;DHT22;56302;52.322;5.926;2022-12-04T15:47:35;1.50;91.20
69189;DHT22;56302;52.322;5.926;2022-12-04T15:50:23;1.50;91.00
69189;DHT22;56302;52.322;5.926;2022-12-04T15:53:15;1.50;91.10
69189;DHT22;56302;52.322;5.926;2022-12-04T15:55:48;1.50;91.10
69189;DHT22;56302;52.322;5.926;2022-12-04T15:58:39;1.50;91.20
69189;DHT22;56302;52.322;5.926;2022-12-04T16:01:09;1.50;91.20
69189;DHT22;56302;52.322;5.926;2022-12-04T16:03:49;1.50;91.00
69189;DHT22;56302;52.322;5.926;2022-12-04T16:14:30;1.60;91.10
69189;DHT22;56302;52.322;5.926;2022-12-04T16:16:31;1.60;91.10
69189;DHT22;56302;52.322;5.926;2022-12-04T16:18:57;1.60;91.30
69189;DHT22;56302;52.322;5.926;2022-12-04T16:21:28;1.60;91.30
69189;DHT22;56302;52.322;5.926;2022-12-04T16:24:03;1.50;91.50
69189;DHT22;56302;52.322;5.926;2022-12-04T16:26:29;1.60;91.50
69189;DHT22;56302;52.322;5.926;2022-12-04T16:28:54;1.60;91.60
69189;DHT22;56302;52.322;5.926;2022-12-04T16:31:21;1.60;91.70
69189;DHT22;56302;52.322;5.926;2022-12-04T16:33:47;1.60;91.90
69189;DHT22;56302;52.322;5.926;2022-12-04T16:36:13;1.50;91.90
69189;DHT22;56302;52.322;5.926;2022-12-04T16:38:38;1.60;92.00
69189;DHT22;56302;52.322;5.926;2022-12-04T16:41:04;1.60;92.00
69189;DHT22;56302;52.322;5.926;2022-12-04T16:43:29;1.60;92.10
69189;DHT22;56302;52.322;5.926;2022-12-04T16:45:56;1.60;92.30
69189;DHT22;56302;52.322;5.926;2022-12-04T16:48:22;1.60;92.50
69189;DHT22;56302;52.322;5.926;2022-12-04T16:50:48;1.60;92.50
69189;DHT22;56302;52.322;5.926;2022-12-04T16:53:19;1.60;92.70
69189;DHT22;56302;52.322;5.926;2022-12-04T16:55:49;1.60;92.80
69189;DHT22;56302;52.322;5.926;2022-12-04T16:58:16;1.60;93.00
69189;DHT22;56302;52.322;5.926;2022-12-04T17:00:42;1.60;93.20
69189;DHT22;56302;52.322;5.926;2022-12-04T17:03:25;1.60;93.40
69189;DHT22;56302;52.322;5.926;2022-12-04T17:05:52;1.60;93.60
69189;DHT22;56302;52.322;5.926;2022-12-04T17:08:17;1.60;93.80
69189;DHT22;56302;52.322;5.926;2022-12-04T17:10:43;1.60;94.00
69189;DHT22;56302;52.322;5.926;2022-12-04T17:13:09;1.50;94.40
69189;DHT22;56302;52.322;5.926;2022-12-04T17:15:34;1.50;94.60
69189;DHT22;56302;52.322;5.926;2022-12-04T17:18:00;1.50;94.70
69189;DHT22;56302;52.322;5.926;2022-12-04T17:20:26;1.50;94.80
69189;DHT22;56302;52.322;5.926;2022-12-04T17:22:52;1.50;94.90
69189;DHT22;56302;52.322;5.926;2022-12-04T17:25:17;1.50;95.00
69189;DHT22;56302;52.322;5.926;2022-12-04T17:27:43;1.50;95.20
69189;DHT22;56302;52.322;5.926;2022-12-04T17:30:10;1.50;95.20
69189;DHT22;56302;52.322;5.926;2022-12-04T17:32:36;1.50;95.10
69189;DHT22;56302;52.322;5.926;2022-12-04T17:35:04;1.50;95.20
69189;DHT22;56302;52.322;5.926;2022-12-04T17:37:31;1.50;95.20